Time;durP1;ratioP1;P1;durP2;ratioP2;P2;SDS_P1;SDS_P2;PMS_P1;PMS_P2;Temp;Humidity;BMP_temperature;BMP_pressure;BME280_temperature;BME280_humidity;BME280_pressure;Samples;Min_cycle;Max_cycle;Signal;HPM_P1;HPM_P2
2022/12/30 00:01:07;;;;;;;18.38;3.90;;;8.00;99.90;;;;;;5069970;28;20025;-82
2022/12/30 00:03:33;;;;;;;9.88;2.42;;;8.00;99.90;;;;;;5066171;28;20031;-80
2022/12/30 00:05:59;;;;;;;19.30;2.75;;;8.00;99.90;;;;;;5070835;28;20033;-81
2022/12/30 07:10:16;;;;;;;23.27;5.15;;;6.90;99.90;;;;;;5122236;23;20054;-81
2022/12/30 07:12:41;;;;;;;23.08;4.13;;;7.00;99.90;;;;;;4985901;28;20375;-81
2022/12/30 07:15:07;;;;;;;21.02;3.30;;;7.00;99.90;;;;;;4980594;28;20061;-82
2022/12/30 07:17:33;;;;;;;8.60;2.72;;;7.00;99.90;;;;;;4985297;28;20030;-82
2022/12/30 07:19:58;;;;;;;18.20;2.92;;;7.00;99.90;;;;;;4982874;28;20539;-83
2022/12/30 07:22:24;;;;;;;21.80;2.85;;;6.90;99.90;;;;;;4987275;28;20055;-84
2022/12/30 07:24:49;;;;;;;19.13;3.60;;;7.00;99.90;;;;;;4986423;28;20038;-83
2022/12/30 07:27:15;;;;;;;14.13;3.15;;;7.00;99.90;;;;;;4986092;28;20046;-83
2022/12/30 07:29:41;;;;;;;21.67;3.38;;;7.00;99.90;;;;;;4987341;28;20053;-83
2022/12/30 07:32:08;;;;;;;16.50;2.65;;;6.90;99.90;;;;;;4988123;28;20039;-84
2022/12/30 07:34:34;;;;;;;13.00;2.58;;;6.90;99.90;;;;;;4986629;28;20035;-83
2022/12/30 07:37:00;;;;;;;11.73;2.72;;;6.90;99.90;;;;;;4987221;28;20426;-83
2022/12/30 07:39:26;;;;;;;10.02;2.42;;;6.90;99.90;;;;;;4981936;28;20030;-82
2022/12/30 07:41:52;;;;;;;12.90;2.53;;;6.80;99.90;;;;;;4987405;28;20470;-83
2022/12/30 07:44:17;;;;;;;12.30;2.25;;;6.80;99.90;;;;;;4987448;28;20049;-83
2022/12/30 07:46:43;;;;;;;13.93;2.92;;;6.80;99.90;;;;;;4981269;28;20724;-83
2022/12/30 07:49:08;;;;;;;22.85;3.08;;;6.80;99.90;;;;;;4985833;28;20077;-83
2022/12/30 07:51:34;;;;;;;18.38;3.22;;;6.70;99.90;;;;;;4974772;28;20034;-83
2022/12/30 07:53:59;;;;;;;18.70;3.25;;;6.70;99.90;;;;;;4978282;28;20010;-84
2022/12/30 07:56:25;;;;;;;9.25;2.15;;;6.70;99.90;;;;;;4986909;28;20062;-84
2022/12/30 07:58:53;;;;;;;8.32;2.03;;;6.70;99.90;;;;;;4983175;28;20021;-84
2022/12/30 08:01:19;;;;;;;10.52;2.17;;;6.70;99.90;;;;;;4985744;28;20080;-84
2022/12/30 08:03:46;;;;;;;8.50;1.98;;;6.60;99.90;;;;;;4989936;28;20491;-83
2022/12/30 08:06:17;;;;;;;9.65;2.22;;;6.60;99.90;;;;;;4988406;28;20050;-84
2022/12/30 08:08:44;;;;;;;10.02;2.80;;;6.60;99.90;;;;;;4984910;28;20030;-84
2022/12/30 08:11:11;;;;;;;14.63;3.63;;;6.60;99.90;;;;;;4983000;28;20074;-84
2022/12/30 08:13:40;;;;;;;28.70;5.40;;;6.60;99.90;;;;;;4984242;28;20038;-84
2022/12/30 08:16:08;;;;;;;18.90;4.63;;;6.60;99.90;;;;;;4986561;28;20638;-84
2022/12/30 08:18:34;;;;;;;12.32;3.53;;;6.50;99.90;;;;;;4983679;28;20030;-83
2022/12/30 08:21:01;;;;;;;11.10;3.45;;;6.50;99.90;;;;;;4985620;28;20458;-83
2022/12/30 08:23:29;;;;;;;14.05;2.95;;;6.40;99.90;;;;;;4983075;28;20113;-84
2022/12/30 08:25:55;;;;;;;13.30;4.50;;;6.40;99.90;;;;;;4985631;28;20034;-83
2022/12/30 08:28:20;;;;;;;10.77;3.97;;;6.40;99.90;;;;;;4983431;28;20037;-83
2022/12/30 08:30:46;;;;;;;15.30;4.82;;;6.40;99.90;;;;;;4982708;28;20254;-83
2022/12/30 08:33:11;;;;;;;16.73;3.83;;;6.30;99.90;;;;;;4983957;28;20034;-83
2022/12/30 08:35:37;;;;;;;18.00;4.75;;;6.30;99.90;;;;;;4984677;28;20062;-83
2022/12/30 08:38:06;;;;;;;16.90;3.20;;;6.30;99.90;;;;;;4986191;28;20109;-83
2022/12/30 08:40:33;;;;;;;16.25;3.55;;;6.30;99.90;;;;;;4980287;28;20035;-84
2022/12/30 08:42:59;;;;;;;14.23;3.53;;;6.30;99.90;;;;;;4979781;28;20121;-83
2022/12/30 08:45:25;;;;;;;17.42;3.83;;;6.30;99.90;;;;;;4982655;28;20082;-83
2022/12/30 08:47:50;;;;;;;15.68;3.58;;;6.30;99.90;;;;;;4982244;28;20375;-83
2022/12/30 08:50:16;;;;;;;15.02;3.28;;;6.30;99.90;;;;;;4977997;28;20378;-83
2022/12/30 08:52:42;;;;;;;11.07;2.42;;;6.30;99.90;;;;;;4983959;28;20042;-84
2022/12/30 08:55:08;;;;;;;18.73;4.65;;;6.20;99.90;;;;;;4983050;28;20050;-84
2022/12/30 08:57:36;;;;;;;19.63;6.13;;;6.20;99.90;;;;;;4985285;28;20030;-85
2022/12/30 09:00:02;;;;;;;17.67;4.13;;;6.20;99.90;;;;;;4987609;28;20022;-84
2022/12/30 09:02:28;;;;;;;19.25;3.20;;;6.30;99.90;;;;;;4981885;28;20108;-83
2022/12/30 09:04:53;;;;;;;17.17;2.95;;;6.30;99.90;;;;;;4979116;28;20065;-83
2022/12/30 09:07:19;;;;;;;16.85;3.67;;;6.40;99.90;;;;;;4984855;28;20478;-84
2022/12/30 09:09:44;;;;;;;16.15;3.08;;;6.40;99.90;;;;;;4983641;28;20518;-84
2022/12/30 09:12:10;;;;;;;23.83;3.00;;;6.40;99.90;;;;;;4982939;28;20452;-84
2022/12/30 09:14:35;;;;;;;17.13;3.88;;;6.50;99.90;;;;;;4987634;28;20536;-83
2022/12/30 09:17:01;;;;;;;22.08;3.28;;;6.50;99.90;;;;;;4983117;28;20034;-84
2022/12/30 09:19:26;;;;;;;16.83;3.38;;;6.60;99.90;;;;;;4982991;28;20125;-84
2022/12/30 09:21:51;;;;;;;16.17;3.13;;;6.60;99.90;;;;;;4980860;28;20037;-85
2022/12/30 09:24:17;;;;;;;19.98;5.00;;;6.60;99.90;;;;;;4983878;28;20026;-84
2022/12/30 09:26:43;;;;;;;21.45;5.28;;;6.70;99.90;;;;;;4980946;28;20398;-83
2022/12/30 09:29:08;;;;;;;30.88;4.40;;;6.90;99.90;;;;;;4983546;28;20064;-84
2022/12/30 09:31:34;;;;;;;23.25;4.25;;;6.90;99.90;;;;;;4979347;28;20091;-84
2022/12/30 09:33:59;;;;;;;21.60;4.30;;;6.90;99.90;;;;;;4978529;28;20030;-83
2022/12/30 09:36:26;;;;;;;35.28;6.53;;;6.90;99.90;;;;;;4980608;28;20068;-83
2022/12/30 09:38:51;;;;;;;28.35;3.75;;;6.90;99.90;;;;;;4984738;28;20084;-84
2022/12/30 09:43:14;;;;;;;22.95;3.78;;;7.00;99.90;;;;;;4983415;28;20039;-84
2022/12/30 09:44:20;;;;;;;22.70;3.70;;;7.00;99.90;;;;;;4981355;28;20045;-82
2022/12/30 09:46:58;;;;;;;20.50;3.88;;;7.00;99.90;;;;;;4979682;28;20505;-83
2022/12/30 09:49:28;;;;;;;17.67;3.50;;;7.00;99.90;;;;;;4984938;28;20085;-82
2022/12/30 09:52:11;;;;;;;19.60;3.10;;;7.10;99.90;;;;;;4979958;28;20027;-82
2022/12/30 09:54:40;;;;;;;19.17;3.10;;;7.10;99.90;;;;;;4985038;28;20060;-83
2022/12/30 10:00:03;;;;;;;13.20;3.75;;;7.20;99.90;;;;;;4978979;28;20080;-84
2022/12/30 10:02:36;;;;;;;19.90;3.47;;;7.20;99.90;;;;;;4984356;28;20026;-83
2022/12/30 10:05:01;;;;;;;25.38;3.83;;;7.30;99.90;;;;;;4980123;28;20154;-84
2022/12/30 10:07:32;;;;;;;20.17;3.75;;;7.30;99.90;;;;;;4979357;28;20514;-85
2022/12/30 10:10:26;;;;;;;17.92;3.15;;;7.40;99.90;;;;;;4977614;28;20052;-82
2022/12/30 10:13:12;;;;;;;28.73;3.38;;;7.40;99.90;;;;;;4980691;28;20089;-83
2022/12/30 10:15:57;;;;;;;17.48;3.95;;;7.40;99.90;;;;;;4980353;28;20058;-89
2022/12/30 10:18:35;;;;;;;16.48;4.28;;;7.40;99.90;;;;;;4978433;28;20092;-85
2022/12/30 10:21:32;;;;;;;22.50;3.03;;;7.40;99.90;;;;;;4977863;28;20502;-85
2022/12/30 10:24:06;;;;;;;16.52;3.50;;;7.50;99.90;;;;;;4979453;28;20084;-85
2022/12/30 10:26:43;;;;;;;27.63;5.50;;;7.50;99.90;;;;;;4985810;28;20046;-84
2022/12/30 10:29:17;;;;;;;16.30;4.03;;;7.50;99.90;;;;;;4981300;28;20521;-85
2022/12/30 10:31:45;;;;;;;23.10;3.85;;;7.50;99.90;;;;;;4986581;28;20037;-85
2022/12/30 10:34:15;;;;;;;10.43;3.28;;;7.50;99.90;;;;;;4982540;28;20061;-85
2022/12/30 10:37:06;;;;;;;23.98;4.57;;;7.50;99.90;;;;;;4984478;28;20034;-85
2022/12/30 10:39:45;;;;;;;20.00;3.53;;;7.50;99.90;;;;;;4976208;28;20044;-85
2022/12/30 10:42:36;;;;;;;16.33;3.72;;;7.50;99.90;;;;;;4987098;28;20023;-85
2022/12/30 10:45:21;;;;;;;17.88;3.60;;;7.60;99.90;;;;;;4981987;28;20035;-85
2022/12/30 10:48:23;;;;;;;22.77;4.00;;;7.60;99.90;;;;;;4980623;28;20039;-86
2022/12/30 10:50:49;;;;;;;13.48;2.92;;;7.60;99.90;;;;;;4982385;28;20121;-86
2022/12/30 10:53:27;;;;;;;20.20;3.63;;;7.60;99.90;;;;;;4980536;28;20091;-86
2022/12/30 10:55:57;;;;;;;12.93;3.42;;;7.60;99.90;;;;;;4982375;28;20033;-85
2022/12/30 10:58:34;;;;;;;18.17;3.85;;;7.70;99.90;;;;;;4987594;28;20031;-85
2022/12/30 11:01:01;;;;;;;17.00;3.55;;;7.80;99.90;;;;;;4979136;28;20042;-85
2022/12/30 11:03:29;;;;;;;17.80;3.67;;;7.80;99.90;;;;;;4987125;28;20037;-85
2022/12/30 11:05:55;;;;;;;16.52;3.95;;;7.90;99.90;;;;;;4988079;28;20034;-84
2022/12/30 11:08:24;;;;;;;15.75;3.65;;;7.90;99.90;;;;;;4983658;28;20029;-85
2022/12/30 11:11:10;;;;;;;9.45;2.90;;;8.00;99.90;;;;;;4988271;28;20046;-85
2022/12/30 11:16:27;;;;;;;15.52;4.57;;;7.90;99.90;;;;;;4987822;28;19917;-86
2022/12/30 11:18:56;;;;;;;9.52;2.25;;;8.00;99.90;;;;;;4987927;28;20026;-86
2022/12/30 11:21:33;;;;;;;15.05;2.88;;;8.00;99.90;;;;;;4987936;28;20030;-85
2022/12/30 11:24:02;;;;;;;13.45;2.38;;;7.90;99.90;;;;;;4979398;28;20035;-85
2022/12/30 11:26:30;;;;;;;15.05;2.72;;;8.00;99.90;;;;;;4983529;28;20071;-85
2022/12/30 11:29:01;;;;;;;17.35;3.30;;;8.00;99.90;;;;;;4987275;28;20368;-85
2022/12/30 11:31:35;;;;;;;12.55;2.85;;;8.00;99.90;;;;;;4984502;28;20481;-86
2022/12/30 11:34:04;;;;;;;11.77;3.20;;;8.00;99.90;;;;;;4978653;28;20088;-85
2022/12/30 11:36:30;;;;;;;19.05;3.28;;;8.00;99.90;;;;;;4991414;28;20285;-85
2022/12/30 11:39:04;;;;;;;11.70;2.60;;;8.00;99.90;;;;;;4986994;28;20110;-85
2022/12/30 11:41:32;;;;;;;20.98;3.08;;;8.00;99.90;;;;;;4988275;28;20157;-85
2022/12/30 11:43:58;;;;;;;13.20;2.90;;;8.00;99.90;;;;;;4991125;28;20475;-85
2022/12/30 11:46:30;;;;;;;11.18;1.92;;;8.00;99.90;;;;;;4991387;28;20038;-87
2022/12/30 11:48:58;;;;;;;10.48;2.95;;;8.10;99.90;;;;;;4990324;28;20030;-84
2022/12/30 11:51:26;;;;;;;7.57;2.30;;;8.00;99.90;;;;;;4989674;28;20442;-84
2022/12/30 11:54:11;;;;;;;17.20;3.38;;;8.00;99.90;;;;;;4991224;28;20038;-85
2022/12/30 11:57:03;;;;;;;13.50;2.67;;;8.00;99.90;;;;;;4982417;28;20045;-85
2022/12/30 11:59:43;;;;;;;13.85;2.03;;;8.00;99.90;;;;;;4963527;28;20034;-84
2022/12/30 12:02:29;;;;;;;22.15;3.78;;;8.00;99.90;;;;;;4989492;28;20254;-84
2022/12/30 12:04:55;;;;;;;15.75;2.78;;;8.00;99.90;;;;;;4985828;28;20077;-84
2022/12/30 12:07:24;;;;;;;15.25;3.03;;;8.10;99.90;;;;;;4991123;28;20077;-85
2022/12/30 12:10:22;;;;;;;9.88;2.30;;;8.00;99.90;;;;;;4990835;28;20051;-83
2022/12/30 12:12:48;;;;;;;18.13;2.67;;;8.10;99.90;;;;;;4990378;28;20035;-85
2022/12/30 12:15:36;;;;;;;11.00;3.33;;;8.10;99.90;;;;;;4990631;28;20070;-84
2022/12/30 12:18:18;;;;;;;11.38;3.22;;;8.10;99.90;;;;;;4985015;28;20395;-86
2022/12/30 12:20:56;;;;;;;17.70;3.55;;;8.10;99.90;;;;;;4983477;28;20113;-85
2022/12/30 12:23:58;;;;;;;14.98;2.28;;;8.10;99.90;;;;;;4989705;28;20064;-84
2022/12/30 12:26:29;;;;;;;14.93;2.35;;;8.10;99.90;;;;;;4987351;28;20049;-84
2022/12/30 12:28:56;;;;;;;9.68;2.08;;;8.10;99.90;;;;;;4983646;28;20101;-84
2022/12/30 12:31:31;;;;;;;15.40;2.92;;;8.10;99.90;;;;;;4989837;28;20030;-84
2022/12/30 12:34:02;;;;;;;21.30;3.47;;;8.10;99.90;;;;;;4983191;28;20471;-85
2022/12/30 12:36:47;;;;;;;9.30;2.42;;;8.20;99.90;;;;;;4987540;28;20526;-84
2022/12/30 12:39:30;;;;;;;12.57;2.63;;;8.20;99.90;;;;;;4987727;28;20037;-85
2022/12/30 12:42:20;;;;;;;10.48;2.97;;;8.20;99.90;;;;;;4986786;28;20080;-84
2022/12/30 12:45:00;;;;;;;12.27;2.40;;;8.20;99.90;;;;;;4985102;28;20036;-86
2022/12/30 12:47:52;;;;;;;7.95;2.30;;;8.10;99.90;;;;;;4988726;28;20038;-85
2022/12/30 12:50:33;;;;;;;8.70;2.20;;;8.20;99.90;;;;;;4980286;28;20033;-85
2022/12/30 12:53:07;;;;;;;13.82;2.20;;;8.10;99.90;;;;;;4990044;28;20128;-86
2022/12/30 12:56:01;;;;;;;12.15;2.90;;;8.10;99.90;;;;;;4990199;28;20037;-85
2022/12/30 12:58:42;;;;;;;18.85;3.20;;;8.20;99.90;;;;;;4981823;28;20022;-84
2022/12/30 13:01:26;;;;;;;13.90;2.22;;;8.20;99.90;;;;;;4989565;28;20031;-85
2022/12/30 13:04:26;;;;;;;13.68;2.35;;;8.10;99.90;;;;;;4985875;28;20099;-84
2022/12/30 13:07:05;;;;;;;11.45;2.38;;;8.20;99.90;;;;;;4985871;28;20066;-84
2022/12/30 13:09:41;;;;;;;13.93;3.25;;;8.10;99.90;;;;;;4981733;28;20427;-85
2022/12/30 13:12:10;;;;;;;;;;;8.10;99.90;;;;;;4979086;28;20368;-85
2022/12/30 13:14:44;;;;;;;14.15;3.00;;;8.10;99.90;;;;;;4981368;28;19910;-86
2022/12/30 13:17:35;;;;;;;12.27;2.95;;;8.00;99.90;;;;;;4989148;28;20026;-85
2022/12/30 13:20:09;;;;;;;9.00;2.38;;;8.10;99.90;;;;;;4975346;28;20049;-85
2022/12/30 13:22:37;;;;;;;14.50;2.60;;;8.00;99.90;;;;;;4988444;28;20117;-85
2022/12/30 13:25:12;;;;;;;12.90;2.80;;;8.10;99.90;;;;;;4987921;28;20034;-86
2022/12/30 13:27:40;;;;;;;14.73;2.35;;;8.00;99.90;;;;;;4989606;28;20039;-84
2022/12/30 13:30:12;;;;;;;15.23;2.80;;;8.00;99.90;;;;;;4988885;28;20446;-84
2022/12/30 13:32:53;;;;;;;20.20;3.20;;;8.00;99.90;;;;;;4980803;28;20030;-87
2022/12/30 13:35:24;;;;;;;13.40;2.33;;;8.00;99.90;;;;;;4983370;28;20338;-83
2022/12/30 13:38:23;;;;;;;7.63;2.50;;;8.00;99.90;;;;;;4980034;28;20025;-84
2022/12/30 13:41:17;;;;;;;13.45;3.28;;;8.00;99.90;;;;;;4989142;28;20267;-85
2022/12/30 13:43:46;;;;;;;10.70;2.22;;;8.00;99.90;;;;;;4986443;28;20065;-85
2022/12/30 13:46:19;;;;;;;11.68;2.95;;;8.10;99.90;;;;;;4988412;28;20022;-86
2022/12/30 13:48:52;;;;;;;17.45;2.70;;;8.00;99.90;;;;;;4986848;28;20045;-85
2022/12/30 13:51:21;;;;;;;15.60;2.83;;;8.00;99.90;;;;;;4988490;28;20497;-85
2022/12/30 13:53:51;;;;;;;12.75;3.10;;;8.00;99.90;;;;;;4981252;28;20026;-87
2022/12/30 13:56:31;;;;;;;12.38;2.42;;;8.10;99.90;;;;;;4980277;28;20612;-88
2022/12/30 13:58:57;;;;;;;16.10;2.28;;;8.10;99.90;;;;;;4987260;28;20041;-84
2022/12/30 14:01:30;;;;;;;16.48;3.00;;;8.10;99.90;;;;;;4980648;28;20031;-88
2022/12/30 14:04:11;;;;;;;24.20;3.72;;;8.00;99.90;;;;;;4988432;28;20033;-85
2022/12/30 14:06:41;;;;;;;25.10;3.63;;;8.00;99.90;;;;;;4987857;28;20039;-85
2022/12/30 14:09:19;;;;;;;18.10;3.00;;;8.00;99.90;;;;;;4979287;28;20054;-85
2022/12/30 14:12:20;;;;;;;11.43;2.55;;;8.00;99.90;;;;;;4984420;28;20037;-86
2022/12/30 14:14:46;;;;;;;14.05;3.20;;;8.00;99.90;;;;;;4956373;28;20046;-84
2022/12/30 14:17:17;;;;;;;8.63;3.47;;;8.00;99.90;;;;;;4982082;28;20387;-84
2022/12/30 14:19:54;;;;;;;12.02;3.08;;;8.00;99.90;;;;;;4978852;28;20474;-88
2022/12/30 14:22:41;;;;;;;12.18;2.65;;;8.10;99.90;;;;;;4987941;28;20117;-83
2022/12/30 14:25:27;;;;;;;15.90;3.28;;;8.00;99.90;;;;;;4986623;28;20035;-89
2022/12/30 14:28:03;;;;;;;11.90;2.72;;;8.00;99.90;;;;;;4969586;28;20051;-86
2022/12/30 14:30:44;;;;;;;13.77;3.42;;;8.00;99.90;;;;;;4982490;28;20474;-84
2022/12/30 14:33:12;;;;;;;11.95;2.72;;;8.00;99.90;;;;;;4982604;28;20442;-88
2022/12/30 14:35:53;;;;;;;10.00;2.35;;;8.00;99.90;;;;;;4987103;28;20030;-85
2022/12/30 14:38:42;;;;;;;12.05;2.92;;;7.90;99.90;;;;;;4979720;28;20399;-85
2022/12/30 14:41:15;;;;;;;12.32;3.08;;;7.90;99.90;;;;;;4988272;28;20057;-84
2022/12/30 14:44:01;;;;;;;11.30;3.45;;;8.00;99.90;;;;;;4985678;28;20037;-84
2022/12/30 14:46:40;;;;;;;24.90;3.15;;;7.90;99.90;;;;;;4979530;28;20394;-84
2022/12/30 14:49:23;;;;;;;12.15;3.25;;;7.90;99.90;;;;;;4988209;28;20390;-86
2022/12/30 14:52:08;;;;;;;10.60;2.40;;;8.00;99.90;;;;;;4982609;28;20034;-85
2022/12/30 14:54:46;;;;;;;8.05;1.67;;;8.00;99.90;;;;;;4986712;28;20050;-87
2022/12/30 14:57:12;;;;;;;9.18;2.47;;;8.00;99.90;;;;;;4981417;28;20355;-87
2022/12/30 15:00:12;;;;;;;19.58;3.30;;;7.90;99.90;;;;;;4987493;28;20042;-84
2022/12/30 15:02:51;;;;;;;15.02;3.10;;;7.90;99.90;;;;;;4981379;28;20038;-87
2022/12/30 15:05:21;;;;;;;5.55;2.25;;;7.90;99.90;;;;;;4984248;28;20026;-88
2022/12/30 15:08:07;;;;;;;19.52;2.60;;;7.90;99.90;;;;;;4974386;28;20058;-86
2022/12/30 15:10:38;;;;;;;9.35;2.38;;;7.90;99.90;;;;;;4991602;28;20046;-85
2022/12/30 15:13:20;;;;;;;10.57;2.88;;;8.00;99.90;;;;;;4991359;28;20037;-87
2022/12/30 15:15:56;;;;;;;11.38;2.25;;;7.90;99.90;;;;;;4989211;28;20061;-86
2022/12/30 15:18:24;;;;;;;11.15;2.10;;;7.90;99.90;;;;;;4983466;28;20037;-82
2022/12/30 15:20:50;;;;;;;13.15;2.78;;;7.90;99.90;;;;;;4989558;28;20057;-88
2022/12/30 15:23:18;;;;;;;12.77;2.38;;;7.90;99.90;;;;;;4987011;28;20027;-85
2022/12/30 15:25:57;;;;;;;9.02;2.63;;;7.90;99.90;;;;;;4985769;28;20034;-85
2022/12/30 15:28:23;;;;;;;19.42;4.07;;;7.90;99.90;;;;;;4988480;28;20053;-82
2022/12/30 15:30:49;;;;;;;9.00;2.20;;;8.00;99.90;;;;;;4991813;28;20030;-86
2022/12/30 15:33:15;;;;;;;10.30;2.25;;;7.90;99.90;;;;;;4991379;28;20030;-84
2022/12/30 15:35:41;;;;;;;8.90;1.95;;;7.90;99.90;;;;;;4983303;28;20031;-84
2022/12/30 15:38:12;;;;;;;7.32;2.30;;;7.90;99.90;;;;;;4986856;28;20503;-85
2022/12/30 15:40:42;;;;;;;6.45;1.95;;;7.90;99.90;;;;;;4989079;28;20050;-84
2022/12/30 15:43:16;;;;;;;5.93;2.10;;;7.90;99.90;;;;;;4991423;28;20077;-83
2022/12/30 15:45:53;;;;;;;13.27;4.05;;;7.90;99.90;;;;;;4991139;28;20034;-86
2022/12/30 15:48:40;;;;;;;8.90;2.50;;;8.00;99.90;;;;;;4991120;28;20096;-85
2022/12/30 15:51:33;;;;;;;11.23;1.88;;;8.00;99.90;;;;;;4991327;28;20984;-84
2022/12/30 15:54:05;;;;;;;7.70;2.20;;;8.00;99.90;;;;;;4983036;28;20034;-86
2022/12/30 15:56:32;;;;;;;4.13;1.70;;;8.00;99.90;;;;;;4985866;28;20554;-83
2022/12/30 15:59:05;;;;;;;12.35;3.25;;;8.00;99.90;;;;;;4986044;28;20026;-85
2022/12/30 16:01:35;;;;;;;12.25;2.38;;;8.00;99.90;;;;;;4980246;28;20031;-88
2022/12/30 16:04:06;;;;;;;5.63;1.60;;;8.00;99.90;;;;;;4983679;28;20026;-83
2022/12/30 16:06:32;;;;;;;8.27;2.35;;;8.00;99.90;;;;;;4981935;28;20133;-85
2022/12/30 16:08:58;;;;;;;10.00;2.53;;;8.00;99.90;;;;;;4991103;28;20133;-86
2022/12/30 16:11:30;;;;;;;9.52;2.47;;;8.00;99.90;;;;;;4990832;28;20034;-82
2022/12/30 16:14:15;;;;;;;16.25;2.42;;;8.00;99.90;;;;;;4981692;28;20030;-83
2022/12/30 16:16:41;;;;;;;7.32;2.05;;;8.00;99.90;;;;;;4979696;28;20027;-85
2022/12/30 16:19:09;;;;;;;9.27;2.20;;;8.00;99.90;;;;;;4985649;28;20034;-83
2022/12/30 16:21:37;;;;;;;7.93;1.98;;;8.00;99.90;;;;;;4982167;28;20483;-86
2022/12/30 16:24:32;;;;;;;12.40;2.45;;;8.00;99.90;;;;;;4987861;28;20034;-84
2022/12/30 16:27:02;;;;;;;7.95;2.30;;;8.00;99.90;;;;;;4990421;28;20105;-87
2022/12/30 16:29:30;;;;;;;4.80;1.90;;;8.00;99.90;;;;;;4990269;28;20089;-83
2022/12/30 16:31:56;;;;;;;4.90;1.90;;;8.00;99.90;;;;;;4989461;28;20474;-81
2022/12/30 16:34:22;;;;;;;6.25;1.95;;;8.00;99.90;;;;;;4983901;28;20096;-83
2022/12/30 16:36:51;;;;;;;12.63;1.88;;;8.00;99.90;;;;;;4980869;28;20026;-86
2022/12/30 16:39:16;;;;;;;13.80;2.33;;;8.00;99.90;;;;;;4989337;28;20479;-87
2022/12/30 16:41:42;;;;;;;8.18;2.10;;;8.00;99.90;;;;;;4990327;28;20029;-85
2022/12/30 16:44:19;;;;;;;7.95;1.75;;;8.00;99.90;;;;;;4990332;28;20026;-83
2022/12/30 16:46:46;;;;;;;7.78;2.28;;;8.00;99.90;;;;;;4985263;28;20038;-87
2022/12/30 16:49:11;;;;;;;7.85;2.55;;;8.00;99.90;;;;;;4983409;28;20053;-86
2022/12/30 16:51:53;;;;;;;6.72;2.28;;;8.00;99.90;;;;;;4982884;28;20105;-87
2022/12/30 16:54:23;;;;;;;6.53;2.05;;;8.00;99.90;;;;;;4982205;28;20387;-84
2022/12/30 16:56:50;;;;;;;5.43;2.30;;;8.00;99.90;;;;;;4990355;28;20077;-85
2022/12/30 16:59:17;;;;;;;8.88;2.35;;;8.00;99.90;;;;;;4990327;28;20442;-85
2022/12/30 17:01:46;;;;;;;7.65;2.15;;;8.00;99.90;;;;;;4987141;28;20030;-85
2022/12/30 17:04:15;;;;;;;5.18;2.03;;;8.00;99.90;;;;;;4989636;28;20121;-86
2022/12/30 17:06:41;;;;;;;6.93;2.10;;;8.00;99.90;;;;;;4982793;28;20121;-86
2022/12/30 17:09:09;;;;;;;4.70;1.85;;;8.00;99.90;;;;;;4989706;28;20052;-87
2022/12/30 17:11:34;;;;;;;5.47;2.00;;;8.00;99.90;;;;;;4979395;28;20038;-84
2022/12/30 17:14:01;;;;;;;5.68;1.70;;;8.00;99.90;;;;;;4976747;28;20027;-83
2022/12/30 17:16:30;;;;;;;5.47;1.80;;;8.00;99.90;;;;;;4986111;28;20066;-84
2022/12/30 17:18:57;;;;;;;5.18;2.08;;;8.00;99.90;;;;;;4988189;28;20026;-85
2022/12/30 17:21:41;;;;;;;10.27;2.22;;;8.00;99.90;;;;;;4988351;28;20035;-84
2022/12/30 17:24:12;;;;;;;4.10;1.88;;;8.00;99.90;;;;;;4986927;28;20050;-84
2022/12/30 17:26:38;;;;;;;13.45;1.60;;;8.00;99.90;;;;;;4988661;28;20124;-84
2022/12/30 17:29:03;;;;;;;9.35;1.92;;;8.00;99.90;;;;;;4987358;28;20546;-86
2022/12/30 17:31:31;;;;;;;10.55;1.80;;;8.00;99.90;;;;;;4988662;28;20027;-85
2022/12/30 17:33:58;;;;;;;7.38;1.80;;;8.00;99.90;;;;;;4977252;28;20031;-84
2022/12/30 17:36:25;;;;;;;7.93;1.90;;;8.00;99.90;;;;;;4983438;28;20088;-84
2022/12/30 17:38:51;;;;;;;6.65;1.55;;;8.00;99.90;;;;;;4988785;28;20038;-83
2022/12/30 17:41:18;;;;;;;4.35;2.20;;;7.90;99.90;;;;;;4979338;28;20081;-83
2022/12/30 17:43:44;;;;;;;6.28;1.80;;;8.00;99.90;;;;;;4985729;28;20061;-83
2022/12/30 17:46:11;;;;;;;3.45;1.42;;;8.00;99.90;;;;;;4980618;28;20038;-83
2022/12/30 17:48:36;;;;;;;5.68;1.42;;;8.00;99.90;;;;;;4982115;28;20371;-85
2022/12/30 17:51:14;;;;;;;4.28;1.65;;;8.00;99.90;;;;;;4984775;28;20037;-89
2022/12/30 17:53:40;;;;;;;4.38;1.55;;;7.90;99.90;;;;;;4983095;28;20041;-85
2022/12/30 17:56:06;;;;;;;8.15;1.60;;;7.90;99.90;;;;;;4979339;28;20026;-84
2022/12/30 17:58:32;;;;;;;5.90;1.42;;;7.90;99.90;;;;;;4978205;28;20530;-84
2022/12/30 18:00:57;;;;;;;4.93;1.60;;;7.90;99.90;;;;;;4982019;28;20178;-87
2022/12/30 18:03:23;;;;;;;3.42;1.85;;;7.90;99.90;;;;;;4980355;28;20058;-85
2022/12/30 18:05:51;;;;;;;5.70;1.45;;;7.80;99.90;;;;;;4985722;28;20038;-85
2022/12/30 18:08:20;;;;;;;3.42;1.60;;;7.80;99.90;;;;;;4987184;28;20030;-86
2022/12/30 18:11:01;;;;;;;3.05;1.73;;;7.80;99.90;;;;;;4981427;28;20077;-84
2022/12/30 18:13:29;;;;;;;2.03;1.48;;;7.80;99.90;;;;;;4981937;28;20026;-82
2022/12/30 18:15:55;;;;;;;6.55;1.83;;;7.70;99.90;;;;;;4982684;28;20165;-85
2022/12/30 18:18:21;;;;;;;3.00;1.60;;;7.70;99.90;;;;;;4989250;28;20530;-87
2022/12/30 18:20:47;;;;;;;2.08;1.67;;;7.80;99.90;;;;;;4984653;28;20416;-84
2022/12/30 18:23:12;;;;;;;3.17;1.90;;;7.70;99.90;;;;;;4981970;28;20042;-86
2022/12/30 18:25:42;;;;;;;2.30;1.80;;;7.70;99.90;;;;;;4982703;28;20030;-84
2022/12/30 18:28:08;;;;;;;4.03;2.08;;;7.70;99.90;;;;;;4976100;28;20121;-85
2022/12/30 18:30:34;;;;;;;4.88;2.17;;;7.70;99.90;;;;;;4981330;28;20057;-84
2022/12/30 18:33:00;;;;;;;2.72;1.52;;;7.70;99.90;;;;;;4977903;28;20479;-84
2022/12/30 18:35:25;;;;;;;5.10;2.22;;;7.70;99.90;;;;;;4979600;28;20090;-83
2022/12/30 18:37:51;;;;;;;3.80;2.22;;;7.70;99.90;;;;;;4984098;28;20038;-86
2022/12/30 18:40:17;;;;;;;4.40;2.08;;;7.70;99.90;;;;;;4981173;28;20026;-84
2022/12/30 18:42:43;;;;;;;6.53;2.30;;;7.60;99.90;;;;;;4977972;28;20046;-82
2022/12/30 18:45:09;;;;;;;3.58;2.15;;;7.70;99.90;;;;;;4981403;28;20530;-82
2022/12/30 18:47:34;;;;;;;5.93;2.10;;;7.70;99.90;;;;;;4978961;28;20104;-84
2022/12/30 18:50:00;;;;;;;4.35;2.33;;;7.70;99.90;;;;;;4978788;28;20014;-84
2022/12/30 18:52:26;;;;;;;2.05;1.73;;;7.70;99.90;;;;;;4981791;28;20097;-85
2022/12/30 18:54:52;;;;;;;3.90;2.22;;;7.70;99.90;;;;;;4982061;28;20065;-84
2022/12/30 18:57:18;;;;;;;3.25;2.20;;;7.70;99.90;;;;;;4985926;28;20084;-82
2022/12/30 18:59:43;;;;;;;5.18;2.40;;;7.70;99.90;;;;;;4981934;28;20046;-83
2022/12/30 19:02:10;;;;;;;3.30;2.22;;;7.70;99.90;;;;;;4982637;28;20022;-82
2022/12/30 19:04:36;;;;;;;2.78;2.05;;;7.70;99.90;;;;;;4978646;28;20065;-83
2022/12/30 19:07:06;;;;;;;4.95;2.47;;;7.70;99.90;;;;;;4974305;28;20069;-84
2022/12/30 19:09:33;;;;;;;3.40;2.10;;;7.70;99.90;;;;;;4977415;28;20060;-83
2022/12/30 19:12:00;;;;;;;5.68;2.00;;;7.70;99.90;;;;;;4975681;28;20471;-85
2022/12/30 19:14:26;;;;;;;4.18;2.10;;;7.70;99.90;;;;;;4975644;28;20042;-82
2022/12/30 19:16:53;;;;;;;3.30;2.10;;;7.70;99.90;;;;;;4978313;28;20037;-83
2022/12/30 19:19:21;;;;;;;2.70;2.30;;;7.70;99.90;;;;;;4976306;28;20027;-82
2022/12/30 19:21:47;;;;;;;3.17;2.42;;;7.70;99.90;;;;;;4979723;28;20498;-83
2022/12/30 19:24:18;;;;;;;6.90;2.80;;;7.70;99.90;;;;;;4973605;28;20026;-83
2022/12/30 19:26:44;;;;;;;2.80;2.50;;;7.70;99.90;;;;;;4985643;28;20089;-84
2022/12/30 19:29:11;;;;;;;2.65;1.90;;;7.80;99.90;;;;;;4980243;28;20430;-82
2022/12/30 19:31:40;;;;;;;2.63;2.38;;;7.80;99.90;;;;;;4980742;28;20366;-82
2022/12/30 19:34:11;;;;;;;3.42;2.40;;;7.90;99.90;;;;;;4977743;28;20023;-84
2022/12/30 19:36:38;;;;;;;6.30;2.10;;;7.90;99.90;;;;;;4985934;28;20098;-82
2022/12/30 19:39:06;;;;;;;2.67;2.45;;;7.90;99.90;;;;;;4979065;28;20026;-83
2022/12/30 19:41:35;;;;;;;5.07;2.58;;;7.90;99.90;;;;;;4978536;28;20467;-84
2022/12/30 19:44:09;;;;;;;2.63;2.17;;;7.90;99.90;;;;;;4977496;28;20038;-82
2022/12/30 19:46:36;;;;;;;2.30;2.10;;;7.90;99.90;;;;;;4976066;28;20078;-82
2022/12/30 19:49:02;;;;;;;10.52;2.00;;;8.00;99.90;;;;;;4979744;28;20050;-82
2022/12/30 19:51:28;;;;;;;3.20;2.30;;;8.00;99.90;;;;;;4984191;28;20053;-84
2022/12/30 19:53:53;;;;;;;2.95;2.42;;;8.10;99.90;;;;;;4985035;28;20402;-83
2022/12/30 19:56:20;;;;;;;3.42;2.33;;;8.10;99.90;;;;;;4982265;28;20022;-82
2022/12/30 19:58:47;;;;;;;4.13;2.33;;;8.20;99.90;;;;;;4983042;28;20026;-84
2022/12/30 20:01:28;;;;;;;2.20;2.00;;;8.20;99.90;;;;;;4984330;28;20030;-84
2022/12/30 20:03:59;;;;;;;3.25;2.50;;;8.20;99.90;;;;;;4989988;28;20053;-83
2022/12/30 20:06:26;;;;;;;3.00;1.95;;;8.20;99.90;;;;;;4980397;28;20033;-84
2022/12/30 20:08:52;;;;;;;2.38;1.85;;;8.20;99.90;;;;;;4983566;28;20061;-82
2022/12/30 20:11:22;;;;;;;2.03;1.75;;;8.20;99.90;;;;;;4985363;28;20025;-83
2022/12/30 20:13:50;;;;;;;2.78;2.00;;;8.20;99.90;;;;;;4986631;28;20430;-84
2022/12/30 20:16:19;;;;;;;2.42;2.03;;;8.20;99.90;;;;;;4983841;28;20031;-82
2022/12/30 20:18:58;;;;;;;3.42;1.80;;;8.20;99.90;;;;;;4986648;28;20060;-83
2022/12/30 20:21:25;;;;;;;5.32;1.95;;;8.20;99.90;;;;;;4985254;28;20031;-83